createdAt,value
2019-04-04T00:02:40.073Z,89.14
2019-04-04T00:07:39.825Z,89.28
2019-04-04T00:12:39.791Z,89.62
2019-04-04T00:17:39.806Z,90.08
2019-04-04T00:22:39.776Z,89.92
2019-04-04T00:27:39.776Z,89.56
2019-04-04T00:32:38.898Z,90.44
2019-04-04T00:37:37.836Z,90.13
2019-04-04T00:42:37.804Z,91.49
2019-04-04T00:47:37.816Z,90.48
2019-04-04T00:52:39.006Z,89.97
2019-04-04T00:57:38.015Z,89.97
2019-04-04T01:02:36.865Z,90.08
2019-04-04T01:07:36.448Z,89.76
2019-04-04T01:12:35.765Z,89.91
2019-04-04T01:17:35.825Z,90.18
2019-04-04T01:22:34.798Z,89.81
2019-04-04T01:27:36.676Z,90.70
2019-04-04T01:32:34.799Z,90.92
2019-04-04T01:37:34.832Z,90.62
2019-04-04T01:42:37.916Z,91.04
2019-04-04T01:52:34.845Z,91.88
2019-04-04T01:57:34.793Z,91.93
2019-04-04T02:02:34.833Z,92.27
2019-04-04T02:07:34.824Z,91.94
2019-04-04T02:12:38.489Z,91.60
2019-04-04T02:17:35.794Z,91.89
2019-04-04T02:22:35.811Z,92.34
2019-04-04T02:27:37.680Z,92.26
2019-04-04T02:32:34.808Z,91.97
2019-04-04T02:37:34.859Z,92.15
2019-04-04T02:42:33.855Z,91.74
2019-04-04T02:47:33.938Z,92.27
2019-04-04T02:52:32.880Z,91.85
2019-04-04T02:57:31.795Z,92.30
2019-04-04T03:02:31.819Z,92.29
2019-04-04T03:07:31.790Z,92.63
2019-04-04T03:12:31.074Z,92.39
2019-04-04T03:17:32.688Z,92.89
2019-04-04T03:22:30.875Z,93.01
2019-04-04T03:27:30.023Z,92.90
2019-04-04T03:32:29.861Z,93.31
2019-04-04T03:37:29.888Z,92.84
2019-04-04T03:42:30.901Z,92.66
2019-04-04T03:47:31.852Z,92.60
2019-04-04T03:52:30.995Z,93.17
2019-04-04T03:57:31.949Z,93.26
2019-04-04T04:02:31.856Z,93.76
2019-04-04T04:07:30.889Z,93.62
2019-04-04T04:12:30.910Z,93.15
2019-04-04T04:17:29.989Z,93.43
2019-04-04T04:22:29.872Z,93.83
2019-04-04T04:27:29.855Z,93.85
2019-04-04T04:32:29.856Z,94.06
2019-04-04T04:37:29.867Z,93.87
2019-04-04T04:42:28.867Z,93.93
2019-04-04T04:47:28.872Z,93.77
2019-04-04T04:52:28.895Z,93.49
2019-04-04T04:57:30.162Z,93.55
2019-04-04T05:02:27.877Z,93.70
2019-04-04T05:07:27.840Z,93.59
2019-04-04T05:12:28.162Z,94.37
2019-04-04T05:17:28.012Z,93.94
2019-04-04T05:22:26.995Z,93.98
2019-04-04T05:32:25.130Z,94.25
2019-04-04T05:37:27.233Z,93.92
2019-04-04T05:42:24.884Z,94.07
2019-04-04T05:47:24.912Z,93.73
2019-04-04T05:52:25.051Z,92.65
2019-04-04T05:57:24.918Z,92.90
2019-04-04T06:02:24.074Z,93.60
2019-04-04T06:07:22.975Z,93.36
2019-04-04T06:12:24.864Z,92.89
2019-04-04T06:17:22.154Z,92.87
2019-04-04T06:22:21.973Z,92.68
2019-04-04T06:27:22.089Z,92.81
2019-04-04T06:32:21.949Z,92.70
2019-04-04T06:37:20.947Z,92.70
2019-04-04T06:42:20.905Z,92.88
2019-04-04T06:47:19.936Z,93.37
2019-04-04T06:52:19.945Z,92.86
2019-04-04T06:57:18.958Z,92.62
2019-04-04T07:02:18.970Z,92.60
2019-04-04T07:07:18.989Z,92.39
2019-04-04T07:12:22.506Z,92.41
2019-04-04T07:17:17.057Z,91.76
2019-04-04T07:22:16.160Z,91.90
2019-04-04T07:27:16.321Z,91.93
2019-04-04T07:32:15.516Z,91.31
2019-04-04T07:37:15.934Z,91.66
2019-04-04T07:42:15.865Z,91.73
2019-04-04T07:47:16.669Z,90.74
2019-04-04T07:52:17.243Z,91.22
2019-04-04T07:57:14.949Z,89.42
2019-04-04T08:02:14.208Z,89.68
2019-04-04T08:07:14.582Z,90.51
2019-04-04T08:12:14.594Z,89.64
2019-04-04T08:17:14.240Z,89.69
2019-04-04T08:22:14.639Z,89.19
2019-04-04T08:27:14.620Z,88.35
2019-04-04T08:32:14.169Z,88.63
2019-04-04T08:37:13.545Z,87.66
2019-04-04T08:42:14.598Z,89.51
2019-04-04T08:47:13.968Z,88.58
2019-04-04T08:52:17.225Z,88.92
2019-04-04T08:57:14.009Z,87.85
2019-04-04T09:02:13.638Z,88.89
2019-04-04T09:07:12.808Z,88.98
2019-04-04T09:12:12.586Z,88.29
2019-04-04T09:17:12.594Z,89.13
2019-04-04T09:22:12.588Z,87.56
2019-04-04T09:27:11.599Z,88.03
2019-04-04T09:32:12.764Z,89.07
2019-04-04T09:37:11.585Z,87.85
2019-04-04T09:42:10.928Z,87.18
2019-04-04T09:47:10.638Z,86.84
2019-04-04T09:57:10.649Z,84.99
2019-04-04T10:02:10.582Z,85.78
2019-04-04T10:07:09.966Z,86.22
2019-04-04T10:12:09.707Z,85.93
2019-04-04T10:17:09.587Z,86.25
2019-04-04T10:22:09.621Z,86.52
2019-04-04T10:27:10.688Z,86.63
2019-04-04T10:32:09.695Z,86.80
2019-04-04T10:37:09.758Z,85.38
2019-04-04T10:42:08.667Z,84.92
2019-04-04T10:47:07.831Z,84.29
2019-04-04T10:52:07.609Z,86.37
2019-04-04T10:57:06.715Z,84.11
2019-04-04T11:02:05.922Z,85.85
2019-04-04T11:07:04.692Z,84.85
2019-04-04T11:12:05.602Z,83.77
2019-04-04T11:17:04.914Z,81.21
2019-04-04T11:22:04.739Z,83.11
2019-04-04T11:27:04.686Z,82.24
2019-04-04T11:32:03.605Z,85.47
2019-04-04T11:37:03.714Z,85.39
2019-04-04T11:42:04.347Z,86.54
2019-04-04T11:47:02.848Z,85.74
2019-04-04T11:57:01.633Z,86.88
2019-04-04T12:02:01.810Z,85.48
2019-04-04T12:07:00.631Z,86.34
2019-04-04T12:12:00.673Z,84.21
2019-04-04T12:16:59.656Z,83.82
2019-04-04T12:21:58.847Z,84.04
2019-04-04T12:26:59.808Z,83.76
2019-04-04T12:31:58.952Z,85.04
2019-04-04T12:36:58.707Z,82.70
2019-04-04T12:41:58.731Z,84.24
2019-04-04T12:46:59.608Z,84.14
2019-04-04T12:52:00.612Z,82.99
2019-04-04T12:56:59.805Z,85.64
2019-04-04T13:01:58.761Z,85.64
2019-04-04T13:06:57.746Z,82.49
2019-04-04T13:11:56.858Z,82.24
2019-04-04T13:16:55.724Z,82.13
2019-04-04T13:21:55.118Z,83.48
2019-04-04T13:26:55.664Z,82.94
2019-04-04T13:31:55.669Z,82.08
2019-04-04T13:36:55.712Z,82.39
2019-04-04T13:41:54.589Z,83.22
2019-04-04T13:46:55.652Z,84.03
2019-04-04T13:51:54.726Z,82.50
2019-04-04T13:56:55.823Z,84.79
2019-04-04T14:01:54.537Z,83.35
2019-04-04T14:06:54.648Z,83.11
2019-04-04T14:11:54.693Z,83.79
2019-04-04T14:16:55.657Z,83.49
2019-04-04T14:21:55.688Z,84.17
2019-04-04T14:26:54.684Z,83.95
2019-04-04T14:31:54.699Z,84.18
2019-04-04T14:36:54.669Z,83.71
2019-04-04T14:41:54.057Z,85.64
2019-04-04T14:46:52.779Z,82.61
2019-04-04T14:51:52.614Z,84.49
2019-04-04T14:56:52.648Z,82.78
2019-04-04T15:01:51.800Z,81.48
2019-04-04T15:06:51.139Z,83.91
2019-04-04T15:11:51.791Z,79.33
2019-04-04T15:16:51.843Z,82.53
2019-04-04T15:21:50.689Z,82.26
2019-04-04T15:26:51.015Z,83.21
2019-04-04T15:31:50.676Z,82.63
2019-04-04T15:36:49.615Z,82.21
2019-04-04T15:41:48.669Z,84.52
2019-04-04T15:46:48.833Z,81.75
2019-04-04T15:51:47.903Z,81.79
2019-04-04T15:56:47.650Z,83.43
2019-04-04T16:01:46.649Z,82.94
2019-04-04T16:06:46.736Z,81.14
2019-04-04T16:11:49.745Z,83.17
2019-04-04T16:16:45.767Z,84.29
2019-04-04T16:26:44.775Z,81.62
2019-04-04T16:31:45.669Z,83.77
2019-04-04T16:36:46.102Z,82.28
2019-04-04T16:41:44.933Z,85.37
2019-04-04T16:46:44.058Z,84.83
2019-04-04T16:51:43.842Z,85.53
2019-04-04T16:56:43.696Z,82.55
2019-04-04T17:01:42.737Z,84.39
2019-04-04T17:06:41.796Z,85.48
2019-04-04T17:11:42.772Z,82.71
2019-04-04T17:16:42.714Z,84.10
2019-04-04T17:21:43.783Z,85.81
2019-04-04T17:26:43.783Z,83.66
2019-04-04T17:31:43.758Z,85.01
2019-04-04T17:36:42.860Z,83.91
2019-04-04T17:46:42.874Z,85.99
2019-04-04T17:51:42.149Z,84.52
2019-04-04T17:56:43.285Z,86.10
2019-04-04T18:01:42.801Z,86.26
2019-04-04T18:06:41.990Z,87.10
2019-04-04T18:11:41.739Z,87.88
2019-04-04T18:16:42.802Z,86.90
2019-04-04T18:21:42.861Z,86.90
2019-04-04T18:26:42.003Z,87.51
2019-04-04T18:31:41.698Z,88.59
2019-04-04T18:36:42.695Z,87.35
2019-04-04T18:41:41.742Z,87.29
2019-04-04T18:46:41.767Z,87.72
2019-04-04T18:51:41.780Z,87.35
2019-04-04T18:56:41.859Z,88.11
2019-04-04T19:01:40.791Z,87.85
2019-04-04T19:06:40.940Z,87.91
2019-04-04T19:11:40.841Z,88.02
2019-04-04T19:16:40.839Z,88.95
2019-04-04T19:21:40.753Z,88.18
2019-04-04T19:31:39.155Z,88.94
2019-04-04T19:36:38.137Z,89.72
2019-04-04T19:41:36.819Z,89.65
2019-04-04T19:46:37.304Z,89.53
2019-04-04T19:51:35.163Z,90.54
2019-04-04T19:56:34.754Z,90.82
2019-04-04T20:01:34.768Z,91.13
2019-04-04T20:06:35.007Z,91.13
2019-04-04T20:11:33.729Z,91.61
2019-04-04T20:16:32.704Z,91.72
2019-04-04T20:21:32.751Z,91.45
2019-04-04T20:26:32.754Z,91.56
2019-04-04T20:31:32.747Z,91.35
2019-04-04T20:36:32.028Z,92.06
2019-04-04T20:41:31.767Z,90.77
2019-04-04T20:46:31.769Z,90.88
2019-04-04T20:51:30.789Z,91.24
2019-04-04T20:56:30.006Z,91.81
2019-04-04T21:01:29.813Z,91.96
2019-04-04T21:06:28.760Z,92.33
2019-04-04T21:11:27.827Z,92.42
2019-04-04T21:16:27.789Z,92.31
2019-04-04T21:21:26.811Z,92.36
2019-04-04T21:26:26.144Z,92.39
2019-04-04T21:31:25.766Z,92.30
2019-04-04T21:36:25.770Z,92.67
2019-04-04T21:41:25.021Z,92.66
2019-04-04T21:46:25.754Z,92.51
2019-04-04T21:51:25.791Z,92.46
2019-04-04T21:56:25.865Z,92.97
2019-04-04T22:01:25.852Z,92.60
2019-04-04T22:06:24.737Z,92.99
2019-04-04T22:11:24.102Z,93.26
2019-04-04T22:16:23.788Z,93.28
2019-04-04T22:21:24.839Z,93.04
2019-04-04T22:26:23.791Z,93.55
2019-04-04T22:31:23.956Z,93.60
2019-04-04T22:36:23.729Z,93.86
2019-04-04T22:41:22.890Z,93.63
2019-04-04T22:46:21.756Z,93.70
2019-04-04T22:51:21.803Z,93.60
2019-04-04T22:56:21.001Z,93.59
2019-04-04T23:01:22.023Z,93.54
2019-04-04T23:06:22.806Z,93.81
2019-04-04T23:11:23.863Z,94.12
2019-04-04T23:16:23.882Z,94.06
2019-04-04T23:21:23.388Z,94.10
2019-04-04T23:26:22.818Z,94.10
2019-04-04T23:31:23.808Z,93.98
2019-04-04T23:36:34.300Z,94.22
2019-04-04T23:41:23.833Z,94.27
2019-04-04T23:46:22.824Z,94.12
2019-04-04T23:51:22.806Z,94.25
2019-04-04T23:56:22.884Z,94.37
